createdAt,value
2017-09-08T15:42:14.544Z,51.10
2017-09-08T15:44:42.982Z,51.10
2017-09-08T15:47:11.422Z,50.50
2017-09-08T15:49:40.050Z,49.40
2017-09-08T15:52:09.717Z,48.80
2017-09-08T15:54:39.151Z,48.80
2017-09-08T15:57:08.681Z,49.20
2017-09-08T15:59:37.880Z,47.40
2017-09-08T16:02:06.222Z,47.40
2017-09-08T16:04:34.513Z,48.00
2017-09-08T16:07:04.356Z,47.20
2017-09-08T16:09:31.987Z,47.00
2017-09-08T16:12:00.151Z,46.30
2017-09-08T16:14:27.821Z,45.70
2017-09-08T16:16:55.713Z,45.30
2017-09-08T16:19:24.070Z,45.30
2017-09-08T16:21:52.531Z,45.40
2017-09-08T16:24:20.261Z,45.40
2017-09-08T16:26:47.830Z,45.50
2017-09-08T16:29:18.931Z,45.10
2017-09-08T16:31:46.676Z,45.30
2017-09-08T16:34:15.264Z,45.00
2017-09-08T16:36:44.172Z,44.70
2017-09-08T16:39:12.961Z,44.40
2017-09-08T16:41:40.691Z,44.40
2017-09-08T16:44:09.261Z,44.40
2017-09-08T16:46:36.831Z,44.40
2017-09-08T16:50:17.561Z,45.20
2017-09-08T16:52:46.052Z,45.20
2017-09-08T16:55:14.501Z,44.20
2017-09-08T16:57:43.901Z,44.30
2017-09-08T17:00:12.572Z,44.00
2017-09-08T17:02:40.831Z,43.70
2017-09-08T17:05:11.561Z,43.80
2017-09-08T17:07:40.651Z,43.70
2017-09-08T17:10:09.371Z,43.70
2017-09-08T17:12:37.721Z,43.80
2017-09-08T17:15:06.401Z,43.70
2017-09-08T17:17:35.740Z,43.50
2017-09-08T17:20:04.152Z,43.40
2017-09-08T17:22:38.711Z,43.40
2017-09-08T17:25:10.341Z,43.30
2017-09-08T17:27:38.946Z,43.30
2017-09-08T17:30:08.341Z,43.30
2017-09-08T17:32:37.943Z,43.20
2017-09-08T17:35:07.640Z,43.10
2017-09-08T17:37:36.461Z,43.20
2017-09-08T17:40:05.291Z,43.10
2017-09-08T17:42:33.770Z,43.20
2017-09-08T17:45:06.411Z,43.00
2017-09-08T17:47:35.748Z,43.10
2017-09-08T17:50:04.301Z,43.10
2017-09-08T17:52:32.741Z,43.00
2017-09-08T17:55:01.543Z,43.60
2017-09-08T17:57:30.043Z,42.90
2017-09-08T17:59:59.410Z,43.20
2017-09-08T18:02:30.110Z,43.20
2017-09-08T18:04:58.760Z,43.20
2017-09-08T18:07:27.511Z,43.10
2017-09-08T18:09:56.860Z,42.90
2017-09-08T18:12:27.200Z,42.90
2017-09-08T18:14:55.841Z,43.20
2017-09-08T18:17:25.351Z,43.20
2017-09-08T18:19:59.879Z,43.30
2017-09-08T18:22:28.432Z,43.20
2017-09-08T18:24:57.661Z,43.20
2017-09-08T18:27:26.147Z,43.10
2017-09-08T18:29:54.522Z,43.20
2017-09-08T18:32:24.842Z,43.10
2017-09-08T18:34:53.340Z,43.10
2017-09-08T18:37:21.985Z,43.10
2017-09-08T18:39:51.110Z,43.70
2017-09-08T18:42:19.442Z,43.10
2017-09-08T18:44:49.131Z,43.10
2017-09-08T18:47:17.881Z,43.10
2017-09-08T18:49:46.751Z,43.10
2017-09-08T18:52:16.650Z,43.10
2017-09-08T18:54:45.251Z,43.00
2017-09-08T18:57:15.811Z,43.50
2017-09-08T18:59:44.323Z,43.00
2017-09-08T19:02:12.871Z,43.00
2017-09-08T19:04:43.511Z,42.90
2017-09-08T19:07:12.281Z,43.00
2017-09-08T19:09:44.721Z,43.00
2017-09-08T19:12:13.150Z,43.00
2017-09-08T19:14:45.621Z,43.00
2017-09-08T19:17:15.905Z,42.70
2017-09-08T19:19:47.721Z,42.50
2017-09-08T19:22:16.200Z,42.50
2017-09-08T19:24:44.778Z,42.50
2017-09-08T19:27:13.323Z,42.40
2017-09-08T19:29:42.602Z,42.40
2017-09-08T19:32:12.112Z,42.30
2017-09-08T19:34:41.542Z,42.90
2017-09-08T19:37:10.150Z,42.30
2017-09-08T19:39:38.762Z,42.30
2017-09-08T19:42:08.651Z,42.30
2017-09-08T19:44:37.170Z,42.30
2017-09-08T19:47:05.680Z,42.30
2017-09-08T19:49:34.500Z,42.20
2017-09-08T19:52:02.712Z,42.20
2017-09-08T19:54:34.201Z,42.10
2017-09-08T19:57:03.421Z,42.20
2017-09-08T19:59:32.021Z,42.20
2017-09-08T20:02:02.052Z,42.20
2017-09-08T20:04:30.810Z,42.10
2017-09-08T20:06:59.461Z,42.20
2017-09-08T20:09:29.962Z,42.10
2017-09-08T20:11:59.172Z,42.10
2017-09-08T20:14:28.581Z,42.10
2017-09-08T20:16:57.490Z,42.10
2017-09-08T20:19:26.781Z,42.00
2017-09-08T20:21:56.951Z,42.00
2017-09-08T20:24:26.700Z,42.10
2017-09-08T20:26:55.200Z,42.10
2017-09-08T20:29:23.851Z,42.10
2017-09-08T20:31:55.960Z,42.10
2017-09-08T20:34:24.711Z,42.10
2017-09-08T20:36:53.800Z,41.60
2017-09-08T20:39:23.331Z,42.10
2017-09-08T20:41:54.190Z,42.00
2017-09-08T20:44:23.710Z,42.00
2017-09-08T20:46:53.560Z,42.00
2017-09-08T20:49:22.950Z,42.00
2017-09-08T20:51:51.740Z,42.00
2017-09-08T20:54:20.340Z,42.00
2017-09-08T20:56:53.321Z,42.00
2017-09-08T20:59:22.514Z,42.00
2017-09-08T21:01:55.391Z,42.00
2017-09-08T21:04:23.871Z,42.00
2017-09-08T21:06:53.502Z,42.00
2017-09-08T21:09:22.940Z,42.00
2017-09-08T21:11:53.101Z,41.90
2017-09-08T21:14:22.770Z,42.00
2017-09-08T21:16:55.592Z,41.90
2017-09-08T21:19:29.520Z,42.00
2017-09-08T21:22:02.690Z,42.00
2017-09-08T21:24:33.393Z,42.00
2017-09-08T21:27:01.970Z,42.00
2017-09-08T21:29:30.561Z,42.00
2017-09-08T21:31:59.250Z,42.00
2017-09-08T21:34:28.801Z,42.00
2017-09-08T21:36:57.680Z,42.00
2017-09-08T21:39:30.660Z,42.00
2017-09-08T21:41:59.931Z,42.00
2017-09-08T21:44:28.360Z,42.00
2017-09-08T21:46:57.850Z,42.00
2017-09-08T21:49:31.402Z,42.00
2017-09-08T21:52:05.331Z,42.00
2017-09-08T21:54:37.645Z,42.60
2017-09-08T21:57:06.221Z,42.00
2017-09-08T21:59:35.920Z,42.00
2017-09-08T22:02:05.112Z,42.00
2017-09-08T22:04:34.100Z,42.00
2017-09-08T22:07:03.020Z,42.60
2017-09-08T22:09:31.841Z,42.00
2017-09-08T22:12:02.071Z,42.00
2017-09-08T22:14:33.600Z,42.00
2017-09-08T22:17:04.171Z,42.00
2017-09-08T22:19:32.821Z,42.00
2017-09-08T22:22:05.421Z,42.00
2017-09-08T22:24:35.251Z,42.00
2017-09-08T22:27:04.231Z,42.00
2017-09-08T22:29:39.731Z,42.00
2017-09-08T22:32:08.312Z,42.00
2017-09-08T22:34:40.781Z,42.60
2017-09-08T22:37:09.032Z,42.00
2017-09-08T22:39:39.161Z,42.00
2017-09-08T22:42:11.252Z,42.00
2017-09-08T22:44:39.801Z,42.00
2017-09-08T22:47:08.511Z,42.00
2017-09-08T22:49:37.051Z,42.00
2017-09-08T22:52:05.451Z,42.00
2017-09-08T22:54:33.821Z,42.10
2017-09-08T22:57:03.121Z,42.10
2017-09-08T22:59:33.351Z,42.00
2017-09-08T23:02:03.640Z,42.00
2017-09-08T23:04:32.961Z,42.00
2017-09-08T23:07:03.401Z,42.00
2017-09-08T23:09:36.560Z,42.00
2017-09-08T23:12:08.671Z,42.00
2017-09-08T23:14:42.761Z,42.00
2017-09-08T23:17:15.492Z,42.10
2017-09-08T23:19:45.321Z,42.00
2017-09-08T23:22:17.411Z,42.00
2017-09-08T23:24:49.792Z,42.00
2017-09-08T23:27:19.911Z,42.10
2017-09-08T23:29:49.404Z,42.00
2017-09-08T23:32:20.423Z,42.00
2017-09-08T23:34:49.821Z,42.00
2017-09-08T23:37:18.301Z,42.00
2017-09-08T23:39:46.960Z,42.00
2017-09-08T23:42:19.510Z,42.00
2017-09-08T23:44:48.041Z,42.00
2017-09-08T23:47:21.111Z,42.10
2017-09-08T23:49:53.871Z,42.10
2017-09-08T23:52:22.500Z,42.10
2017-09-08T23:54:53.801Z,42.60
2017-09-08T23:57:33.301Z,42.10
